createdAt,value
2022-09-27T00:03:55.754Z,13.34
2022-09-27T00:09:00.266Z,13.28
2022-09-27T00:14:04.717Z,13.20
2022-09-27T00:19:12.490Z,13.16
2022-09-27T00:24:18.969Z,13.14
2022-09-27T00:29:22.303Z,13.11
2022-09-27T00:34:26.436Z,13.06
2022-09-27T00:39:29.745Z,13.03
2022-09-27T00:44:38.998Z,12.99
2022-09-27T00:49:42.785Z,12.99
2022-09-27T00:54:50.476Z,13.00
2022-09-27T01:00:19.140Z,12.98
2022-09-27T01:05:26.337Z,12.94
2022-09-27T01:10:41.219Z,12.89
2022-09-27T01:16:02.205Z,12.88
2022-09-27T01:21:13.849Z,12.90
2022-09-27T01:26:20.131Z,12.88
2022-09-27T01:31:59.693Z,12.88
2022-09-27T01:37:17.030Z,12.87
2022-09-27T01:42:24.335Z,12.94
2022-09-27T01:47:50.686Z,12.99
2022-09-27T01:52:59.935Z,12.96
2022-09-27T01:58:21.686Z,12.98
2022-09-27T02:03:37.472Z,12.95
2022-09-27T02:08:53.699Z,12.93
2022-09-27T02:14:11.854Z,12.90
2022-09-27T02:19:33.905Z,12.83
2022-09-27T02:25:04.966Z,12.80
2022-09-27T02:30:13.631Z,12.79
2022-09-27T02:35:28.384Z,12.76
2022-09-27T02:40:34.939Z,12.72
2022-09-27T02:45:55.000Z,12.68
2022-09-27T02:51:27.057Z,12.63
2022-09-27T02:56:45.624Z,12.55
2022-09-27T03:02:14.454Z,12.54
2022-09-27T03:07:18.464Z,12.53
2022-09-27T03:12:26.280Z,12.49
2022-09-27T03:17:29.588Z,12.47
2022-09-27T03:22:33.208Z,12.49
2022-09-27T03:27:36.517Z,12.49
2022-09-27T03:32:44.112Z,12.49
2022-09-27T03:37:47.643Z,12.53
2022-09-27T03:42:51.363Z,12.54
2022-09-27T03:47:55.186Z,12.52
2022-09-27T03:52:58.499Z,12.46
2022-09-27T03:58:02.799Z,12.37
2022-09-27T04:03:11.364Z,12.23
2022-09-27T04:08:14.784Z,12.12
2022-09-27T04:13:18.193Z,12.01
2022-09-27T04:18:21.502Z,11.91
2022-09-27T04:23:29.139Z,11.77
2022-09-27T04:28:33.760Z,11.63
2022-09-27T04:33:37.174Z,11.51
2022-09-27T04:38:40.692Z,11.41
2022-09-27T04:43:43.892Z,11.42
2022-09-27T04:48:50.081Z,11.42
2022-09-27T04:53:53.908Z,11.45
2022-09-27T04:58:57.204Z,11.52
2022-09-27T05:04:00.415Z,11.60
2022-09-27T05:09:03.828Z,11.69
2022-09-27T05:14:07.137Z,11.80
2022-09-27T05:19:10.398Z,11.91
2022-09-27T05:24:13.963Z,12.03
2022-09-27T05:29:18.092Z,12.13
2022-09-27T05:34:21.509Z,12.23
2022-09-27T05:39:24.818Z,12.39
2022-09-27T05:44:28.026Z,12.61
2022-09-27T05:49:32.565Z,12.77
2022-09-27T05:54:35.774Z,12.82
2022-09-27T05:59:39.086Z,12.93
2022-09-27T06:04:42.357Z,13.03
2022-09-27T06:09:45.746Z,13.12
2022-09-27T06:14:49.017Z,13.27
2022-09-27T06:19:52.226Z,13.40
2022-09-27T06:24:55.439Z,13.55
2022-09-27T06:29:58.947Z,13.67
2022-09-27T06:35:05.434Z,13.78
2022-09-27T06:40:09.623Z,13.83
2022-09-27T06:45:13.181Z,13.93
2022-09-27T06:50:17.924Z,14.01
2022-09-27T06:55:21.441Z,14.16
2022-09-27T07:00:24.651Z,14.30
2022-09-27T07:05:31.543Z,14.33
2022-09-27T07:10:37.946Z,14.48
2022-09-27T07:15:42.160Z,14.67
2022-09-27T07:20:45.368Z,14.88
2022-09-27T07:25:48.576Z,15.22
2022-09-27T07:30:56.368Z,15.61
2022-09-27T07:35:59.909Z,15.83
2022-09-27T07:41:12.689Z,15.89
2022-09-27T07:46:15.997Z,16.07
2022-09-27T07:51:19.260Z,16.14
2022-09-27T07:56:22.570Z,16.29
2022-09-27T08:01:26.229Z,16.37
2022-09-27T08:06:30.115Z,16.43
2022-09-27T08:11:33.341Z,16.50
2022-09-27T08:16:36.657Z,16.51
2022-09-27T08:21:40.047Z,16.42
2022-09-27T08:26:43.259Z,16.28
2022-09-27T08:31:46.720Z,16.10
2022-09-27T08:36:50.288Z,16.13
2022-09-27T08:42:18.993Z,16.34
2022-09-27T08:47:40.839Z,16.59
2022-09-27T08:52:51.507Z,16.91
2022-09-27T08:57:58.265Z,17.21
2022-09-27T09:03:03.082Z,17.55
2022-09-27T09:08:37.448Z,17.99
2022-09-27T09:14:13.696Z,18.22
2022-09-27T09:19:39.111Z,18.45
2022-09-27T09:25:00.138Z,18.43
2022-09-27T09:30:18.806Z,18.71
2022-09-27T09:35:35.225Z,19.20
2022-09-27T09:40:48.212Z,19.34
2022-09-27T09:46:03.719Z,19.44
2022-09-27T09:51:12.702Z,19.37
2022-09-27T09:56:33.248Z,19.41
2022-09-27T10:01:48.575Z,19.35
2022-09-27T10:06:52.956Z,19.33
2022-09-27T10:11:56.983Z,19.30
2022-09-27T10:17:03.974Z,19.24
2022-09-27T10:22:23.154Z,19.35
2022-09-27T10:27:27.182Z,19.48
2022-09-27T10:32:37.253Z,19.66
2022-09-27T10:37:40.764Z,19.96
2022-09-27T10:42:45.409Z,20.24
2022-09-27T10:47:49.233Z,20.20
2022-09-27T10:53:06.162Z,20.14
2022-09-27T10:58:21.153Z,19.90
2022-09-27T11:03:26.659Z,19.89
2022-09-27T11:08:34.149Z,19.89
2022-09-27T11:13:38.144Z,19.98
2022-09-27T11:18:50.773Z,19.94
2022-09-27T11:24:22.243Z,19.80
2022-09-27T11:30:00.574Z,19.77
2022-09-27T11:35:27.025Z,19.87
2022-09-27T11:40:54.656Z,20.09
2022-09-27T11:46:16.720Z,20.24
2022-09-27T11:51:37.376Z,20.50
2022-09-27T11:57:09.769Z,20.52
2022-09-27T12:02:33.728Z,20.57
2022-09-27T12:08:26.740Z,20.65
2022-09-27T12:13:57.720Z,20.76
2022-09-27T12:19:03.795Z,20.88
2022-09-27T12:24:07.394Z,20.84
2022-09-27T12:29:31.899Z,21.04
2022-09-27T12:34:46.374Z,21.14
2022-09-27T12:39:55.957Z,21.34
2022-09-27T12:44:59.751Z,21.41
2022-09-27T12:50:13.098Z,21.38
2022-09-27T12:55:25.316Z,21.40
2022-09-27T13:00:40.982Z,21.51
2022-09-27T13:06:12.797Z,21.76
2022-09-27T13:11:52.971Z,22.12
2022-09-27T13:16:56.181Z,22.26
2022-09-27T13:21:59.800Z,22.20
2022-09-27T13:27:03.518Z,22.16
2022-09-27T13:32:21.575Z,21.88
2022-09-27T13:37:45.699Z,21.51
2022-09-27T13:43:10.591Z,21.39
2022-09-27T13:48:18.102Z,21.50
2022-09-27T13:53:40.261Z,21.35
2022-09-27T13:59:00.257Z,21.38
2022-09-27T14:04:17.803Z,21.59
2022-09-27T14:09:29.711Z,21.67
2022-09-27T14:14:35.023Z,21.56
2022-09-27T14:19:41.866Z,21.23
2022-09-27T14:24:50.399Z,20.94
2022-09-27T14:30:01.023Z,20.98
2022-09-27T14:35:31.225Z,20.87
2022-09-27T14:40:54.636Z,20.87
2022-09-27T14:46:00.266Z,21.50
2022-09-27T14:51:14.035Z,22.28
2022-09-27T14:56:23.068Z,22.49
2022-09-27T15:01:26.380Z,22.82
2022-09-27T15:06:30.304Z,22.26
2022-09-27T15:11:38.761Z,24.31
2022-09-27T15:16:43.140Z,28.02
2022-09-27T15:21:47.536Z,30.41
2022-09-27T15:26:51.506Z,31.15
2022-09-27T15:32:07.725Z,32.41
2022-09-27T15:37:35.841Z,33.75
2022-09-27T15:43:01.830Z,33.81
2022-09-27T15:48:15.847Z,33.70
2022-09-27T15:53:48.542Z,31.86
2022-09-27T15:58:51.954Z,28.36
2022-09-27T16:03:55.264Z,26.05
2022-09-27T16:08:58.477Z,24.25
2022-09-27T16:14:01.685Z,22.65
2022-09-27T16:19:04.891Z,21.38
2022-09-27T16:24:08.100Z,20.24
2022-09-27T16:29:14.196Z,19.24
2022-09-27T16:34:17.751Z,18.30
2022-09-27T16:39:21.000Z,17.51
2022-09-27T16:44:24.417Z,16.82
2022-09-27T16:49:46.361Z,16.21
2022-09-27T16:54:49.673Z,15.69
2022-09-27T16:59:52.883Z,15.32
2022-09-27T17:04:56.298Z,14.95
2022-09-27T17:09:59.605Z,14.64
2022-09-27T17:15:02.926Z,14.41
2022-09-27T17:20:06.637Z,14.18
2022-09-27T17:25:10.049Z,13.98
2022-09-27T17:30:14.184Z,13.83
2022-09-27T17:35:17.493Z,13.67
2022-09-27T17:40:20.854Z,13.48
2022-09-27T17:45:24.217Z,13.34
2022-09-27T17:50:28.959Z,13.20
2022-09-27T17:55:32.819Z,13.07
2022-09-27T18:00:36.296Z,12.97
2022-09-27T18:05:39.513Z,12.89
2022-09-27T18:10:44.045Z,12.81
2022-09-27T18:15:55.404Z,12.73
2022-09-27T18:21:03.978Z,12.66
2022-09-27T18:26:10.054Z,12.68
2022-09-27T18:31:16.265Z,12.67
2022-09-27T18:36:21.795Z,12.65
2022-09-27T18:41:28.122Z,12.59
2022-09-27T18:46:37.090Z,12.52
2022-09-27T18:51:46.322Z,12.46
2022-09-27T18:56:52.488Z,12.40
2022-09-27T19:01:55.775Z,12.35
2022-09-27T19:06:59.990Z,12.32
2022-09-27T19:12:04.426Z,12.29
2022-09-27T19:17:08.250Z,12.26
2022-09-27T19:22:12.684Z,12.23
2022-09-27T19:27:15.893Z,12.24
2022-09-27T19:32:19.206Z,12.24
2022-09-27T19:37:22.414Z,12.24
2022-09-27T19:42:25.624Z,12.26
2022-09-27T19:47:28.934Z,12.32
2022-09-27T19:52:33.677Z,12.36
2022-09-27T19:57:36.887Z,12.39
2022-09-27T20:02:40.467Z,12.49
2022-09-27T20:07:48.161Z,12.56
2022-09-27T20:12:52.114Z,12.65
2022-09-27T20:17:56.171Z,12.74
2022-09-27T20:23:00.709Z,12.81
2022-09-27T20:28:04.123Z,12.89
2022-09-27T20:33:26.172Z,12.95
2022-09-27T20:38:29.585Z,12.97
2022-09-27T20:43:32.897Z,12.94
2022-09-27T20:48:36.208Z,12.89
2022-09-27T20:53:39.926Z,12.88
2022-09-27T20:58:43.648Z,12.91
2022-09-27T21:03:47.165Z,12.97
2022-09-27T21:08:51.908Z,13.03
2022-09-27T21:13:56.244Z,13.05
2022-09-27T21:18:59.450Z,13.05
2022-09-27T21:24:03.287Z,13.03
2022-09-27T21:29:09.203Z,12.98
2022-09-27T21:34:12.306Z,12.94
2022-09-27T21:39:17.186Z,12.92
2022-09-27T21:44:20.510Z,12.91
2022-09-27T21:49:23.821Z,12.89
2022-09-27T21:54:27.030Z,12.91
2022-09-27T21:59:30.344Z,12.92
2022-09-27T22:04:33.551Z,12.97
2022-09-27T22:09:36.861Z,12.99
2022-09-27T22:14:40.276Z,13.03
2022-09-27T22:19:43.583Z,13.10
2022-09-27T22:24:46.691Z,13.15
2022-09-27T22:29:50.101Z,13.19
2022-09-27T22:34:53.825Z,13.22
2022-09-27T22:39:57.442Z,13.28
2022-09-27T22:45:00.648Z,13.33
2022-09-27T22:50:04.067Z,13.38
2022-09-27T22:55:07.885Z,13.40
2022-09-27T23:00:12.043Z,13.42
2022-09-27T23:05:15.222Z,13.45
2022-09-27T23:10:20.479Z,13.44
2022-09-27T23:15:23.789Z,13.45
2022-09-27T23:20:27.715Z,13.47
2022-09-27T23:25:31.027Z,13.49
2022-09-27T23:30:34.543Z,13.51
2022-09-27T23:35:37.764Z,13.54
2022-09-27T23:40:41.043Z,13.59
2022-09-27T23:45:44.372Z,13.62
2022-09-27T23:50:48.606Z,13.61
2022-09-27T23:56:02.860Z,13.60
